Time;durP1;ratioP1;P1;durP2;ratioP2;P2;SDS_P1;SDS_P2;PMS_P1;PMS_P2;Temp;Humidity;BMP_temperature;BMP_pressure;BME280_temperature;BME280_humidity;BME280_pressure;Samples;Min_cycle;Max_cycle;Signal;HPM_P1;HPM_P2
2023/04/06 00:01:49;;;;;;;8.33;4.90;;;11.10;77.50;;;;;;5012409;28;20435;-79
2023/04/06 00:04:19;;;;;;;10.50;5.20;;;11.10;77.50;;;;;;4997042;28;20811;-79
2023/04/06 00:06:45;;;;;;;8.07;4.90;;;11.10;77.60;;;;;;4991836;28;20494;-79
2023/04/06 00:09:13;;;;;;;6.30;5.07;;;11.00;77.40;;;;;;5036188;28;20422;-79
2023/04/06 00:11:39;;;;;;;8.90;5.37;;;11.10;77.60;;;;;;5019898;28;20425;-79
2023/04/06 00:14:05;;;;;;;7.30;5.40;;;11.00;77.40;;;;;;5031651;28;20465;-79
2023/04/06 00:16:31;;;;;;;8.20;4.87;;;11.00;77.40;;;;;;5009386;28;20494;-79
2023/04/06 00:18:57;;;;;;;7.23;4.80;;;11.00;77.40;;;;;;5035644;28;20792;-79
2023/04/06 00:21:27;;;;;;;10.03;5.27;;;11.00;77.40;;;;;;5003509;28;20906;-79
2023/04/06 00:23:56;;;;;;;6.23;4.73;;;11.00;77.30;;;;;;5017078;28;20505;-79
2023/04/06 00:26:22;;;;;;;7.63;5.00;;;11.00;77.30;;;;;;5032673;28;20551;-79
2023/04/06 00:28:52;;;;;;;5.03;4.30;;;11.00;77.30;;;;;;5016777;28;20532;-79
2023/04/06 00:31:20;;;;;;;6.43;4.50;;;10.90;77.20;;;;;;5026004;28;20449;-79
2023/04/06 00:33:48;;;;;;;6.83;5.03;;;10.90;77.20;;;;;;5052309;28;20451;-79
2023/04/06 00:36:14;;;;;;;6.40;5.20;;;10.90;77.20;;;;;;5036072;28;20521;-79
2023/04/06 00:38:43;;;;;;;11.60;5.80;;;10.90;77.30;;;;;;5010077;28;20441;-80
2023/04/06 00:41:09;;;;;;;7.00;5.40;;;10.90;77.30;;;;;;5047943;28;20422;-79
2023/04/06 00:43:35;;;;;;;7.40;5.37;;;10.90;77.30;;;;;;5021282;28;20440;-79
2023/04/06 00:46:01;;;;;;;5.33;4.80;;;10.80;77.20;;;;;;5036637;28;20445;-79
2023/04/06 00:48:31;;;;;;;8.10;5.20;;;10.80;77.30;;;;;;5019187;28;20515;-80
2023/04/06 00:51:00;;;;;;;7.83;6.33;;;10.80;77.30;;;;;;5019329;28;20427;-80
2023/04/06 00:53:28;;;;;;;7.20;5.43;;;10.80;77.30;;;;;;5002467;28;20949;-80
2023/04/06 00:55:54;;;;;;;7.97;5.40;;;10.70;77.10;;;;;;5035882;28;20471;-79
2023/04/06 00:58:23;;;;;;;7.90;5.50;;;10.70;77.10;;;;;;5020937;28;20436;-79
2023/04/06 01:00:55;;;;;;;7.00;4.80;;;10.70;77.10;;;;;;5016991;28;20465;-80
2023/04/06 01:03:27;;;;;;;6.23;5.17;;;10.70;77.10;;;;;;5019432;28;20464;-80
2023/04/06 01:05:58;;;;;;;8.67;5.30;;;10.70;77.20;;;;;;5036780;28;20463;-79
2023/04/06 01:08:28;;;;;;;7.10;5.40;;;10.70;77.20;;;;;;5020295;28;20418;-79
2023/04/06 01:11:10;;;;;;;5.67;5.07;;;10.70;77.20;;;;;;5009045;28;20452;-81
2023/04/06 01:13:37;;;;;;;6.13;4.70;;;10.60;77.00;;;;;;5002550;28;20445;-79
2023/04/06 01:16:09;;;;;;;6.50;5.00;;;10.60;77.10;;;;;;5010179;28;20464;-80
2023/04/06 01:18:46;;;;;;;6.37;5.60;;;10.60;77.00;;;;;;5002353;28;20479;-80
2023/04/06 01:21:18;;;;;;;9.13;5.17;;;10.60;77.10;;;;;;5015474;28;20846;-79
2023/04/06 01:24:05;;;;;;;6.47;4.80;;;10.60;77.10;;;;;;5000602;28;20436;-79
2023/04/06 01:26:42;;;;;;;7.03;5.40;;;10.60;77.10;;;;;;5020602;28;20507;-79
2023/04/06 01:29:09;;;;;;;6.93;5.40;;;10.50;77.00;;;;;;5002730;28;20433;-79
2023/04/06 01:31:35;;;;;;;8.20;5.23;;;10.50;77.00;;;;;;4998408;28;20428;-79
2023/04/06 01:34:01;;;;;;;9.43;5.10;;;10.50;77.00;;;;;;5034642;28;20484;-79
2023/04/06 01:36:27;;;;;;;7.70;5.23;;;10.50;77.10;;;;;;5001933;28;20974;-79
2023/04/06 01:39:08;;;;;;;9.93;5.17;;;10.50;77.10;;;;;;5034866;28;20500;-79
2023/04/06 01:41:36;;;;;;;6.17;5.10;;;10.50;77.20;;;;;;5034554;28;20424;-80
2023/04/06 01:44:02;;;;;;;7.30;5.63;;;10.40;77.20;;;;;;5017344;28;20805;-80
2023/04/06 01:46:35;;;;;;;7.47;5.23;;;10.40;77.30;;;;;;5014954;28;20449;-79
2023/04/06 01:49:03;;;;;;;5.27;4.43;;;10.40;77.30;;;;;;5033914;28;20422;-80
2023/04/06 01:51:38;;;;;;;4.90;4.40;;;10.40;77.30;;;;;;5034386;28;20424;-80
2023/04/06 01:54:07;;;;;;;7.03;5.10;;;10.40;77.30;;;;;;5018121;28;20460;-79
2023/04/06 01:56:57;;;;;;;7.57;5.00;;;10.40;77.30;;;;;;5032071;28;20510;-79
2023/04/06 01:59:33;;;;;;;6.70;4.90;;;10.40;77.30;;;;;;5002770;28;20924;-80
2023/04/06 02:02:04;;;;;;;6.30;4.70;;;10.30;77.20;;;;;;5017995;28;20729;-80
2023/04/06 02:04:32;;;;;;;7.07;4.67;;;10.30;77.20;;;;;;5018135;28;20440;-79
2023/04/06 02:07:10;;;;;;;5.40;4.50;;;10.30;77.20;;;;;;5019102;28;20536;-79
2023/04/06 02:09:36;;;;;;;7.23;4.63;;;10.30;77.20;;;;;;5017928;28;20440;-79
2023/04/06 02:12:04;;;;;;;6.97;5.30;;;10.30;77.30;;;;;;5017793;28;20428;-79
2023/04/06 02:14:33;;;;;;;6.23;4.77;;;10.20;77.20;;;;;;5033417;28;20463;-79
2023/04/06 02:17:18;;;;;;;6.47;4.70;;;10.20;77.30;;;;;;5017819;28;20460;-80
2023/04/06 02:19:45;;;;;;;6.73;5.17;;;10.20;77.30;;;;;;4998046;28;20427;-80
2023/04/06 02:22:13;;;;;;;7.97;5.13;;;10.20;77.40;;;;;;5014248;28;20421;-80
2023/04/06 02:24:41;;;;;;;7.73;4.70;;;10.20;77.40;;;;;;5033129;28;20436;-80
2023/04/06 02:27:07;;;;;;;5.47;4.67;;;10.10;77.30;;;;;;5034922;28;20467;-79
2023/04/06 02:29:33;;;;;;;10.30;5.33;;;10.20;77.50;;;;;;5017132;28;20447;-79
2023/04/06 02:32:08;;;;;;;6.47;5.10;;;10.10;77.30;;;;;;5027870;28;20736;-79
2023/04/06 02:34:38;;;;;;;6.33;4.80;;;10.10;77.30;;;;;;5031773;28;20885;-80
2023/04/06 02:37:04;;;;;;;6.13;5.20;;;10.10;77.30;;;;;;4997774;28;20463;-80
2023/04/06 02:39:35;;;;;;;7.63;5.50;;;10.10;77.40;;;;;;5006872;28;20921;-79
2023/04/06 02:42:05;;;;;;;7.80;5.87;;;10.10;77.40;;;;;;5001019;28;20779;-79
2023/04/06 02:44:33;;;;;;;5.33;4.57;;;10.00;77.30;;;;;;4998125;28;20507;-79
2023/04/06 02:47:01;;;;;;;8.03;5.80;;;10.10;77.40;;;;;;5017223;28;20458;-80
2023/04/06 02:49:30;;;;;;;7.63;5.77;;;10.10;77.50;;;;;;5027318;28;20768;-79
2023/04/06 02:52:00;;;;;;;6.90;4.37;;;10.00;77.40;;;;;;5000959;28;20438;-80
2023/04/06 02:54:31;;;;;;;6.80;5.47;;;10.00;77.50;;;;;;5036994;28;20451;-80
2023/04/06 02:56:57;;;;;;;7.40;5.10;;;10.00;77.50;;;;;;5020359;28;20474;-80
2023/04/06 02:59:30;;;;;;;6.60;5.23;;;10.00;77.60;;;;;;5003337;28;20814;-80
2023/04/06 03:02:10;;;;;;;6.70;5.20;;;10.00;77.60;;;;;;5003519;28;20894;-79
2023/04/06 03:04:39;;;;;;;7.13;5.73;;;10.00;77.60;;;;;;4981510;28;20427;-80
2023/04/06 03:07:15;;;;;;;6.50;5.70;;;9.90;79.70;;;;;;5028371;28;20534;-79
2023/04/06 03:09:42;;;;;;;12.07;5.90;;;9.90;78.80;;;;;;5010318;28;20450;-79
2023/04/06 03:12:08;;;;;;;8.37;5.30;;;9.90;78.90;;;;;;5013662;28;20530;-79
2023/04/06 03:14:47;;;;;;;10.70;6.60;;;9.90;79.00;;;;;;5013794;28;20904;-79
2023/04/06 03:17:15;;;;;;;7.40;5.90;;;9.90;79.00;;;;;;5003022;28;20460;-79
2023/04/06 03:19:41;;;;;;;9.13;6.10;;;9.90;79.10;;;;;;5000794;28;20432;-80
2023/04/06 03:22:10;;;;;;;8.83;5.90;;;9.90;79.00;;;;;;5017699;28;20539;-80
2023/04/06 03:24:36;;;;;;;8.07;6.70;;;9.80;79.00;;;;;;5036651;28;20430;-79
2023/04/06 03:27:02;;;;;;;10.80;6.40;;;9.80;79.00;;;;;;5033150;28;20450;-80
2023/04/06 03:29:28;;;;;;;7.57;5.93;;;9.80;79.10;;;;;;5000563;28;20433;-79
2023/04/06 03:31:56;;;;;;;13.00;7.13;;;9.80;79.10;;;;;;5025688;28;20431;-80
2023/04/06 03:34:30;;;;;;;8.50;6.47;;;9.80;79.20;;;;;;5000239;28;20537;-79
2023/04/06 03:36:56;;;;;;;7.20;6.50;;;9.80;79.30;;;;;;4997208;28;20462;-79
2023/04/06 03:39:25;;;;;;;6.47;5.70;;;9.80;79.30;;;;;;5019235;28;20427;-79
2023/04/06 03:41:54;;;;;;;6.60;5.90;;;9.70;79.20;;;;;;5017766;28;20439;-79
2023/04/06 03:44:42;;;;;;;9.83;7.03;;;9.70;79.30;;;;;;5020470;28;20420;-80
2023/04/06 03:47:10;;;;;;;8.03;5.70;;;9.70;79.30;;;;;;5020352;28;20569;-79
2023/04/06 03:49:36;;;;;;;8.80;5.67;;;9.70;79.40;;;;;;5009471;28;20516;-79
2023/04/06 03:52:05;;;;;;;8.03;6.37;;;9.70;79.40;;;;;;5025237;28;20846;-89
2023/04/06 03:54:31;;;;;;;10.00;6.37;;;9.70;79.50;;;;;;5010492;28;20512;-89
2023/04/06 03:56:57;;;;;;;6.73;5.60;;;9.70;79.50;;;;;;5037862;28;20550;-88
2023/04/06 03:59:26;;;;;;;9.93;6.07;;;9.60;79.40;;;;;;5020842;28;20431;-89
2023/04/06 04:01:53;;;;;;;9.13;6.03;;;9.60;79.50;;;;;;5000606;28;20455;-88
2023/04/06 04:04:19;;;;;;;8.73;5.90;;;9.60;79.50;;;;;;5017950;28;20448;-88
2023/04/06 04:06:45;;;;;;;9.57;6.70;;;9.60;79.50;;;;;;5021288;28;20530;-89
2023/04/06 04:09:13;;;;;;;7.43;6.20;;;9.60;79.60;;;;;;5004085;28;21156;-89
2023/04/06 04:11:44;;;;;;;6.60;5.83;;;9.60;79.60;;;;;;5036905;28;20799;-89
2023/04/06 04:14:12;;;;;;;10.13;6.60;;;9.60;79.70;;;;;;5036094;28;20510;-89
2023/04/06 04:16:41;;;;;;;7.60;6.33;;;9.60;79.80;;;;;;5020337;28;20463;-89
2023/04/06 04:19:07;;;;;;;7.00;6.27;;;9.60;79.80;;;;;;5019768;28;20432;-89
2023/04/06 04:21:33;;;;;;;8.80;6.50;;;9.50;79.70;;;;;;5013044;28;20448;-88
2023/04/06 04:24:06;;;;;;;7.63;6.30;;;9.50;79.70;;;;;;4999827;28;20864;-89
2023/04/06 04:26:36;;;;;;;7.37;6.30;;;9.50;79.70;;;;;;5016287;28;20593;-89
2023/04/06 04:29:06;;;;;;;9.70;6.60;;;9.50;79.70;;;;;;5001100;28;20944;-89
2023/04/06 04:31:32;;;;;;;10.90;6.10;;;9.50;79.70;;;;;;4995926;28;20462;-89
2023/04/06 04:34:02;;;;;;;11.20;7.10;;;9.50;79.70;;;;;;5023925;28;20458;-88
2023/04/06 04:36:31;;;;;;;10.37;7.07;;;9.50;79.80;;;;;;5023435;28;20470;-88
2023/04/06 04:39:02;;;;;;;13.00;8.57;;;9.40;79.70;;;;;;5024965;28;20429;-89
2023/04/06 04:41:31;;;;;;;15.20;8.00;;;9.40;79.60;;;;;;5016767;28;20488;-90
2023/04/06 04:43:58;;;;;;;12.53;8.30;;;9.40;79.70;;;;;;5000916;28;20486;-89
2023/04/06 04:46:28;;;;;;;12.30;8.70;;;9.40;79.70;;;;;;4996643;28;20435;-87
2023/04/06 04:48:56;;;;;;;13.93;7.90;;;9.40;79.70;;;;;;5036419;28;20470;-90
2023/04/06 04:51:25;;;;;;;16.27;10.10;;;9.40;79.70;;;;;;5036616;28;20428;-91
2023/04/06 04:54:06;;;;;;;12.40;7.70;;;9.30;79.60;;;;;;5007997;28;20508;-89
2023/04/06 04:56:32;;;;;;;12.93;8.80;;;9.30;79.80;;;;;;4984577;28;20480;-93
2023/04/06 04:59:10;;;;;;;10.30;7.60;;;9.30;79.90;;;;;;5001014;28;20428;-91
2023/04/06 05:01:39;;;;;;;13.17;8.30;;;9.30;80.70;;;;;;4984697;28;20436;-92
2023/04/06 05:04:07;;;;;;;12.20;8.17;;;9.30;80.00;;;;;;5007577;28;20524;-91
2023/04/06 05:06:36;;;;;;;10.80;7.30;;;9.30;80.10;;;;;;5005255;28;20488;-87
2023/04/06 05:09:02;;;;;;;14.07;8.80;;;9.30;80.00;;;;;;5003360;28;20423;-89
2023/04/06 05:11:30;;;;;;;10.03;7.63;;;9.30;80.10;;;;;;4999129;28;20444;-90
2023/04/06 05:13:59;;;;;;;13.23;8.67;;;9.20;80.10;;;;;;5000183;28;20510;-89
2023/04/06 05:16:26;;;;;;;12.60;9.07;;;9.20;80.20;;;;;;4995490;28;20459;-88
2023/04/06 05:18:57;;;;;;;11.03;8.23;;;9.20;80.40;;;;;;5003491;28;20459;-90
2023/04/06 05:21:31;;;;;;;10.60;7.83;;;9.20;80.50;;;;;;5002715;28;20526;-90
2023/04/06 05:24:07;;;;;;;12.90;7.53;;;9.20;80.60;;;;;;5003548;28;20435;-88
2023/04/06 05:26:33;;;;;;;10.47;7.50;;;9.20;80.70;;;;;;5019144;28;20782;-90
2023/04/06 05:29:06;;;;;;;14.07;7.13;;;9.10;80.70;;;;;;5003643;28;20526;-89
2023/04/06 05:31:35;;;;;;;12.30;8.10;;;9.20;81.10;;;;;;5002474;28;20475;-87
2023/04/06 05:34:03;;;;;;;11.70;7.90;;;9.20;81.20;;;;;;5018909;28;20439;-90
2023/04/06 05:36:33;;;;;;;10.70;7.23;;;9.10;81.10;;;;;;5001839;28;20471;-88
2023/04/06 05:39:05;;;;;;;11.03;7.47;;;9.10;81.30;;;;;;5015340;28;20504;-88
2023/04/06 05:41:42;;;;;;;11.13;7.87;;;9.10;81.50;;;;;;5013413;28;20451;-88
2023/04/06 05:44:09;;;;;;;11.13;6.80;;;9.10;81.70;;;;;;5018831;28;20396;-87
2023/04/06 05:46:38;;;;;;;9.83;6.80;;;9.10;81.80;;;;;;5018751;28;20831;-89
2023/04/06 05:49:05;;;;;;;12.17;6.63;;;9.10;82.00;;;;;;5018357;28;20440;-89
2023/04/06 05:51:35;;;;;;;9.87;6.97;;;9.10;82.90;;;;;;5002636;28;20425;-87
2023/04/06 05:54:02;;;;;;;11.33;6.90;;;9.00;82.20;;;;;;4999056;28;20432;-89
2023/04/06 05:56:30;;;;;;;10.67;7.20;;;9.10;82.20;;;;;;5027584;28;20944;-86
2023/04/06 05:58:56;;;;;;;9.70;7.03;;;9.00;82.30;;;;;;5001970;28;20820;-86
2023/04/06 06:01:26;;;;;;;9.77;6.33;;;9.00;82.50;;;;;;5034438;28;20450;-88
2023/04/06 06:03:55;;;;;;;12.10;6.33;;;9.00;82.60;;;;;;5010665;28;20436;-88
2023/04/06 06:06:27;;;;;;;8.43;5.93;;;9.00;82.60;;;;;;5009156;28;21012;-87
2023/04/06 06:09:06;;;;;;;8.10;6.33;;;9.00;82.70;;;;;;5001525;28;20911;-87
2023/04/06 06:11:39;;;;;;;7.50;5.70;;;9.00;82.60;;;;;;5017977;28;20451;-87
2023/04/06 06:14:05;;;;;;;10.13;6.30;;;9.00;83.40;;;;;;5014742;28;20431;-86
2023/04/06 06:16:37;;;;;;;6.90;6.17;;;9.00;82.70;;;;;;4998029;28;20646;-86
2023/04/06 06:19:10;;;;;;;8.97;6.13;;;9.00;82.70;;;;;;5006858;28;20438;-88
2023/04/06 06:21:37;;;;;;;8.20;5.63;;;8.90;82.70;;;;;;5018106;28;20415;-90
2023/04/06 06:24:05;;;;;;;7.63;5.47;;;9.00;82.80;;;;;;5010360;28;20424;-89
2023/04/06 06:26:31;;;;;;;8.20;6.30;;;9.00;82.80;;;;;;4999167;28;20506;-88
2023/04/06 06:28:59;;;;;;;7.97;6.27;;;8.90;82.60;;;;;;4996056;28;20452;-89
2023/04/06 06:31:27;;;;;;;8.33;5.60;;;8.90;82.60;;;;;;4982598;28;20455;-87
2023/04/06 06:33:56;;;;;;;6.80;5.90;;;8.90;82.60;;;;;;4982421;28;20436;-87
2023/04/06 06:36:22;;;;;;;7.43;5.47;;;8.90;82.60;;;;;;4981757;28;20478;-88
2023/04/06 06:38:49;;;;;;;6.30;5.20;;;8.90;82.60;;;;;;4998247;28;20414;-89
2023/04/06 06:41:18;;;;;;;8.97;5.87;;;8.90;82.70;;;;;;5014135;28;20416;-86
2023/04/06 06:43:44;;;;;;;7.73;5.57;;;8.90;82.70;;;;;;4997549;28;20816;-86
2023/04/06 06:46:11;;;;;;;7.40;5.47;;;8.90;82.70;;;;;;5014780;28;20435;-87
2023/04/06 06:48:41;;;;;;;10.53;5.73;;;8.90;82.70;;;;;;5001527;28;20437;-88
2023/04/06 06:51:09;;;;;;;5.90;5.30;;;8.90;82.70;;;;;;5017868;28;20465;-88
2023/04/06 06:53:35;;;;;;;6.33;5.13;;;8.90;82.70;;;;;;5001403;28;20496;-88
2023/04/06 06:56:01;;;;;;;7.60;5.53;;;8.90;82.70;;;;;;5017852;28;20738;-88
2023/04/06 06:58:28;;;;;;;8.73;6.27;;;8.90;82.60;;;;;;5001905;28;20821;-89
2023/04/06 07:00:58;;;;;;;5.83;5.20;;;8.90;82.70;;;;;;5017495;28;20502;-88
2023/04/06 07:03:25;;;;;;;6.00;5.40;;;8.90;82.90;;;;;;5017435;28;20439;-85
2023/04/06 07:05:54;;;;;;;7.93;5.53;;;8.90;82.90;;;;;;4994799;28;20908;-84
2023/04/06 07:08:25;;;;;;;7.33;5.23;;;8.90;83.00;;;;;;5007797;28;20439;-86
2023/04/06 07:10:52;;;;;;;6.37;4.80;;;8.90;83.00;;;;;;5019341;28;20563;-85
2023/04/06 07:13:23;;;;;;;7.13;5.17;;;8.90;83.00;;;;;;5018087;28;20453;-85
2023/04/06 07:15:50;;;;;;;6.00;4.93;;;9.00;83.20;;;;;;5016970;28;20615;-86
2023/04/06 07:18:19;;;;;;;7.77;5.23;;;8.90;83.10;;;;;;5004881;28;20427;-86
2023/04/06 07:20:48;;;;;;;6.50;5.43;;;9.00;83.20;;;;;;5021504;28;20442;-86
2023/04/06 07:23:15;;;;;;;5.90;5.30;;;9.00;83.30;;;;;;5004911;28;20439;-84
2023/04/06 07:25:41;;;;;;;8.50;5.40;;;9.00;83.30;;;;;;5021049;28;20785;-88
2023/04/06 07:28:09;;;;;;;8.33;5.53;;;9.00;83.20;;;;;;5017428;28;20438;-87
2023/04/06 07:30:37;;;;;;;7.73;6.53;;;9.00;83.30;;;;;;5024756;28;20422;-86
2023/04/06 07:33:03;;;;;;;6.40;5.27;;;9.00;83.40;;;;;;5007689;28;20424;-84
2023/04/06 07:35:30;;;;;;;6.83;5.60;;;9.00;83.40;;;;;;4992310;28;20466;-85
2023/04/06 07:37:57;;;;;;;5.97;5.37;;;9.00;83.40;;;;;;5001831;28;20459;-85
2023/04/06 07:40:23;;;;;;;7.77;5.63;;;9.00;83.40;;;;;;5037479;28;20445;-87
2023/04/06 07:42:50;;;;;;;8.43;5.57;;;9.00;83.60;;;;;;5032143;28;20446;-86
2023/04/06 07:45:21;;;;;;;8.13;5.53;;;9.00;83.60;;;;;;5018297;28;20443;-87
2023/04/06 07:47:47;;;;;;;7.00;5.73;;;9.10;83.70;;;;;;5002355;28;20444;-87
2023/04/06 07:50:18;;;;;;;6.90;5.50;;;9.10;84.50;;;;;;5027107;28;20431;-84
2023/04/06 07:52:44;;;;;;;6.50;5.90;;;9.10;83.70;;;;;;5019884;28;20493;-84
2023/04/06 07:55:10;;;;;;;5.77;5.03;;;9.10;83.70;;;;;;5020281;28;20473;-83
2023/04/06 07:57:36;;;;;;;8.60;5.83;;;9.10;83.80;;;;;;5020320;28;20569;-85
2023/04/06 08:00:05;;;;;;;7.80;4.83;;;9.10;83.90;;;;;;5013049;28;20434;-86
2023/04/06 08:02:38;;;;;;;6.30;4.90;;;9.10;84.00;;;;;;5036593;28;20427;-85
2023/04/06 08:05:11;;;;;;;5.60;4.30;;;9.20;84.20;;;;;;5037108;28;20427;-86
2023/04/06 08:07:37;;;;;;;5.60;4.80;;;9.20;84.30;;;;;;5033338;28;20452;-85
2023/04/06 08:10:04;;;;;;;8.63;5.17;;;9.10;84.20;;;;;;5016938;28;20408;-86
2023/04/06 08:12:30;;;;;;;7.33;5.50;;;9.20;84.30;;;;;;5000602;28;20443;-85
2023/04/06 08:14:56;;;;;;;7.37;5.73;;;9.20;84.30;;;;;;5038004;28;20462;-86
2023/04/06 08:17:22;;;;;;;7.40;5.83;;;9.20;84.30;;;;;;5005166;28;20485;-84
2023/04/06 08:19:50;;;;;;;9.47;5.13;;;9.20;84.30;;;;;;5020221;28;20448;-87
2023/04/06 08:22:15;;;;;;;6.00;5.07;;;9.20;84.40;;;;;;5011704;28;20474;-87
2023/04/06 08:24:41;;;;;;;5.60;4.67;;;9.30;84.60;;;;;;5036375;28;20427;-87
2023/04/06 08:27:10;;;;;;;6.83;5.27;;;9.30;84.60;;;;;;5003782;28;20423;-86
2023/04/06 08:29:36;;;;;;;6.53;5.27;;;9.30;84.60;;;;;;5019078;28;20808;-85
2023/04/06 08:32:04;;;;;;;6.77;5.30;;;9.30;84.60;;;;;;5026587;28;20827;-87
2023/04/06 08:34:32;;;;;;;6.47;4.60;;;9.30;84.60;;;;;;5056805;28;20466;-86
2023/04/06 08:36:58;;;;;;;8.57;5.70;;;9.30;84.50;;;;;;5056453;28;20466;-85
2023/04/06 08:39:30;;;;;;;7.57;5.10;;;9.30;84.50;;;;;;5040329;28;20502;-84
2023/04/06 08:42:00;;;;;;;7.43;5.13;;;9.30;84.60;;;;;;5056094;28;20407;-85
2023/04/06 08:44:26;;;;;;;6.27;4.63;;;9.40;84.70;;;;;;5019654;28;20428;-86
2023/04/06 08:46:53;;;;;;;6.80;5.50;;;9.40;84.80;;;;;;5017274;28;20481;-85
2023/04/06 08:49:19;;;;;;;6.77;4.90;;;9.40;84.70;;;;;;5004852;28;20459;-86
2023/04/06 08:51:48;;;;;;;6.50;4.80;;;9.40;84.70;;;;;;5019570;28;20423;-86
2023/04/06 08:54:14;;;;;;;7.30;5.43;;;9.40;84.80;;;;;;5039040;28;20462;-86
2023/04/06 08:56:40;;;;;;;9.30;5.40;;;9.50;84.80;;;;;;5019283;28;20602;-87
2023/04/06 08:59:07;;;;;;;6.50;5.20;;;9.50;84.80;;;;;;5019235;28;20432;-86
2023/04/06 09:01:42;;;;;;;7.40;5.70;;;9.50;84.60;;;;;;5028630;28;20448;-86
2023/04/06 09:04:17;;;;;;;9.20;5.80;;;9.50;84.60;;;;;;5000198;28;20724;-85
2023/04/06 09:06:43;;;;;;;6.60;5.30;;;9.60;84.60;;;;;;5003600;28;20416;-88
2023/04/06 09:09:11;;;;;;;5.70;5.07;;;9.60;84.70;;;;;;5015917;28;20451;-89
2023/04/06 09:11:46;;;;;;;9.27;5.40;;;9.60;84.70;;;;;;5016310;28;20423;-90
2023/04/06 09:14:16;;;;;;;7.40;5.70;;;9.60;84.70;;;;;;5016355;28;20483;-87
2023/04/06 09:16:45;;;;;;;9.57;6.37;;;9.70;84.60;;;;;;4999836;28;20528;-87
2023/04/06 09:19:12;;;;;;;7.80;6.00;;;9.70;84.50;;;;;;4999350;28;20896;-85
2023/04/06 09:21:39;;;;;;;8.60;6.70;;;9.70;84.40;;;;;;5002935;28;20435;-85
2023/04/06 09:24:10;;;;;;;10.07;5.83;;;9.80;84.50;;;;;;5024996;28;20841;-85
2023/04/06 09:26:46;;;;;;;8.10;6.40;;;9.80;84.20;;;;;;5020435;28;20444;-85
2023/04/06 09:29:26;;;;;;;8.53;6.50;;;9.80;84.10;;;;;;5018557;28;20975;-84
2023/04/06 09:32:01;;;;;;;9.03;5.70;;;9.80;84.10;;;;;;5015181;28;20444;-85
2023/04/06 09:34:27;;;;;;;8.90;6.53;;;9.90;84.10;;;;;;4994739;28;20844;-87
2023/04/06 09:36:53;;;;;;;11.30;6.83;;;9.90;84.10;;;;;;5005548;28;20497;-86
2023/04/06 09:39:22;;;;;;;8.73;6.00;;;9.90;84.00;;;;;;5018435;28;20519;-87
2023/04/06 09:41:51;;;;;;;11.33;7.13;;;9.90;84.00;;;;;;5035951;28;20451;-87
2023/04/06 09:44:17;;;;;;;8.50;6.63;;;10.00;82.90;;;;;;5018243;28;20834;-85
2023/04/06 09:46:45;;;;;;;8.47;6.60;;;10.00;82.70;;;;;;5016428;28;20424;-86
2023/04/06 09:49:16;;;;;;;9.37;6.40;;;10.00;82.60;;;;;;5030719;28;20547;-86
2023/04/06 09:51:47;;;;;;;9.40;7.07;;;10.00;82.50;;;;;;5013518;28;20452;-86
2023/04/06 09:54:21;;;;;;;9.90;7.13;;;10.00;82.40;;;;;;4998701;28;20417;-86
2023/04/06 09:56:53;;;;;;;9.77;7.57;;;10.10;82.60;;;;;;5001326;28;20463;-88
2023/04/06 09:59:31;;;;;;;9.00;7.40;;;10.10;82.30;;;;;;5002750;28;20435;-87
2023/04/06 10:01:59;;;;;;;9.43;6.77;;;10.10;82.10;;;;;;5018175;28;20493;-86
2023/04/06 10:05:00;;;;;;;9.57;7.20;;;10.10;82.00;;;;;;4989875;28;20435;-87
2023/04/06 10:07:32;;;;;;;10.40;6.97;;;10.20;82.30;;;;;;5018362;28;20442;-88
2023/04/06 10:10:00;;;;;;;9.33;6.80;;;10.20;82.60;;;;;;5001717;28;20918;-86
2023/04/06 10:12:28;;;;;;;9.87;7.00;;;10.20;82.70;;;;;;5004070;28;20433;-88
2023/04/06 10:14:55;;;;;;;10.00;7.20;;;10.30;82.80;;;;;;5026734;28;20434;-86
2023/04/06 10:17:28;;;;;;;13.93;8.30;;;10.30;82.70;;;;;;5034367;28;20452;-86
2023/04/06 10:20:03;;;;;;;9.83;6.83;;;10.30;82.80;;;;;;5030086;28;20761;-86
2023/04/06 10:22:36;;;;;;;8.97;7.63;;;10.30;82.60;;;;;;5001874;28;20440;-86
2023/04/06 10:25:02;;;;;;;12.90;7.80;;;10.40;82.60;;;;;;5033667;28;20436;-86
2023/04/06 10:27:35;;;;;;;12.87;8.13;;;10.40;82.60;;;;;;5001724;28;20915;-85
2023/04/06 10:30:04;;;;;;;14.70;7.73;;;10.40;82.70;;;;;;5017745;28;20430;-87
2023/04/06 10:32:37;;;;;;;10.63;7.00;;;10.50;82.50;;;;;;5026995;28;20453;-87
2023/04/06 10:35:11;;;;;;;10.23;7.60;;;10.50;82.30;;;;;;5033921;28;20471;-86
2023/04/06 10:37:52;;;;;;;10.80;7.20;;;10.50;82.30;;;;;;5025992;28;20525;-86
2023/04/06 10:40:25;;;;;;;13.53;7.70;;;10.50;82.60;;;;;;5017533;28;20436;-86
2023/04/06 10:42:56;;;;;;;13.37;7.50;;;10.60;83.00;;;;;;5016728;28;20778;-86
2023/04/06 10:45:25;;;;;;;13.20;7.70;;;10.60;82.80;;;;;;5014405;28;20483;-86
2023/04/06 10:47:53;;;;;;;11.60;8.10;;;10.60;82.90;;;;;;5027757;28;20580;-86
2023/04/06 10:50:19;;;;;;;10.67;6.83;;;10.70;82.70;;;;;;5016708;28;20898;-86
2023/04/06 10:52:48;;;;;;;13.50;9.27;;;10.70;82.90;;;;;;5000590;28;20517;-86
2023/04/06 10:55:17;;;;;;;12.90;9.10;;;10.70;83.10;;;;;;5016688;28;20461;-87
2023/04/06 10:57:45;;;;;;;13.10;8.07;;;10.70;82.70;;;;;;5001054;28;20491;-88
2023/04/06 11:00:12;;;;;;;15.00;8.23;;;10.80;82.60;;;;;;5017307;28;20436;-86
2023/04/06 11:02:38;;;;;;;12.83;8.13;;;10.80;82.60;;;;;;5008849;28;20443;-85
2023/04/06 11:05:05;;;;;;;15.37;9.23;;;10.80;82.80;;;;;;5034541;28;20412;-86
2023/04/06 11:07:31;;;;;;;15.10;9.20;;;10.80;83.00;;;;;;5000845;28;20810;-84
2023/04/06 11:10:02;;;;;;;12.37;8.03;;;10.90;82.80;;;;;;5017324;28;20436;-83
2023/04/06 11:12:32;;;;;;;9.77;7.60;;;10.90;82.70;;;;;;5016971;28;20771;-87
2023/04/06 11:15:08;;;;;;;15.40;7.97;;;10.90;83.10;;;;;;5011621;28;20462;-86
2023/04/06 11:17:36;;;;;;;11.20;7.80;;;10.90;83.10;;;;;;5042946;28;20800;-86
2023/04/06 11:20:09;;;;;;;15.33;10.40;;;11.00;83.40;;;;;;4997632;28;20429;-86
2023/04/06 11:22:35;;;;;;;16.43;10.13;;;11.00;83.40;;;;;;5021416;28;20422;-86
2023/04/06 11:25:13;;;;;;;15.43;10.10;;;11.00;82.90;;;;;;5012632;28;20471;-85
2023/04/06 11:27:43;;;;;;;14.00;9.87;;;11.10;82.80;;;;;;5033740;28;20484;-88
2023/04/06 11:30:12;;;;;;;13.60;9.90;;;11.10;82.70;;;;;;5034418;28;20423;-85
2023/04/06 11:32:45;;;;;;;14.57;10.07;;;11.10;82.60;;;;;;5033572;28;20432;-88
2023/04/06 11:35:30;;;;;;;21.00;10.50;;;11.10;82.70;;;;;;4997545;28;20466;-87
2023/04/06 11:38:03;;;;;;;16.30;10.30;;;11.20;82.80;;;;;;4997386;28;20968;-86
2023/04/06 11:40:33;;;;;;;12.50;9.10;;;11.20;82.80;;;;;;5032389;28;20452;-85
2023/04/06 11:42:59;;;;;;;14.20;9.57;;;11.30;83.00;;;;;;4998147;28;20423;-86
2023/04/06 11:45:26;;;;;;;17.30;11.00;;;11.30;83.30;;;;;;4997637;28;20752;-86
2023/04/06 11:47:59;;;;;;;15.10;9.50;;;11.30;83.40;;;;;;5014368;28;20441;-86
2023/04/06 11:50:25;;;;;;;12.70;9.87;;;11.30;83.40;;;;;;5013908;28;20788;-90
2023/04/06 11:53:02;;;;;;;17.83;10.80;;;11.30;83.50;;;;;;4983041;28;20815;-89
2023/04/06 11:55:28;;;;;;;13.30;9.60;;;11.40;83.80;;;;;;5017982;28;20502;-87
2023/04/06 11:57:55;;;;;;;14.90;9.70;;;11.40;83.80;;;;;;5016890;28;20608;-88
2023/04/06 12:00:21;;;;;;;14.03;9.70;;;11.40;83.90;;;;;;5017805;28;20850;-88
2023/04/06 12:02:51;;;;;;;15.10;10.03;;;11.40;84.10;;;;;;5017978;28;20464;-87
2023/04/06 12:05:17;;;;;;;14.27;9.60;;;11.40;84.10;;;;;;4988382;28;20448;-85
2023/04/06 12:07:45;;;;;;;16.37;11.47;;;11.40;84.10;;;;;;5017718;28;20455;-85
2023/04/06 12:10:11;;;;;;;13.90;9.07;;;11.50;84.30;;;;;;5021567;28;20773;-86
2023/04/06 12:12:42;;;;;;;18.63;10.00;;;11.50;84.20;;;;;;5025194;28;20438;-86
2023/04/06 12:15:08;;;;;;;15.87;10.20;;;11.50;84.20;;;;;;5017161;28;20432;-87
2023/04/06 12:17:34;;;;;;;13.03;8.73;;;11.60;84.40;;;;;;5027181;28;20550;-86
2023/04/06 12:20:03;;;;;;;13.10;8.83;;;11.60;84.40;;;;;;5020258;28;20972;-89
2023/04/06 12:22:31;;;;;;;14.17;9.17;;;11.60;84.40;;;;;;5037203;28;20428;-88
2023/04/06 12:25:00;;;;;;;12.53;8.20;;;11.60;84.50;;;;;;5012456;28;20486;-88
2023/04/06 12:27:28;;;;;;;13.87;9.40;;;11.60;84.60;;;;;;5001383;28;20819;-87
2023/04/06 12:29:55;;;;;;;14.50;9.80;;;11.60;84.70;;;;;;5005885;28;20452;-86
2023/04/06 12:32:24;;;;;;;17.40;11.27;;;11.70;84.80;;;;;;5016985;28;20532;-86
2023/04/06 12:34:52;;;;;;;15.13;10.17;;;11.70;84.70;;;;;;5012596;28;20431;-88
2023/04/06 12:37:18;;;;;;;12.00;9.50;;;11.70;84.60;;;;;;5036652;28;20572;-85
2023/04/06 12:39:46;;;;;;;11.77;9.20;;;11.70;84.60;;;;;;5024888;28;20423;-86
2023/04/06 12:42:15;;;;;;;22.43;10.33;;;11.70;84.60;;;;;;5024530;28;20447;-86
2023/04/06 12:44:42;;;;;;;15.73;9.23;;;11.70;84.60;;;;;;5003673;28;20438;-87
2023/04/06 12:47:08;;;;;;;12.60;8.97;;;11.80;84.70;;;;;;5003955;28;20463;-86
2023/04/06 12:49:37;;;;;;;15.00;8.50;;;11.80;84.50;;;;;;5016298;28;21007;-86
2023/04/06 12:52:03;;;;;;;14.37;8.50;;;11.80;84.40;;;;;;5016036;28;20447;-87
2023/04/06 12:54:29;;;;;;;12.37;8.23;;;11.80;84.30;;;;;;5019570;28;20473;-87
2023/04/06 12:56:56;;;;;;;13.93;8.27;;;11.80;84.10;;;;;;5019834;28;20554;-88
2023/04/06 12:59:25;;;;;;;11.90;7.70;;;11.80;84.00;;;;;;5003301;28;20819;-87